sensor_id;sensor_type;location;lat;lon;timestamp;pressure;altitude;pressure_sealevel;temperature;humidity
71770;BME280;66386;52.122;5.420;2023-03-16T00:00:40;101902.75;;;3.64;72.97
71770;BME280;66386;52.122;5.420;2023-03-16T00:03:09;101907.84;;;3.67;72.88
71770;BME280;66386;52.122;5.420;2023-03-16T00:05:37;101897.69;;;3.67;73.16
71770;BME280;66386;52.122;5.420;2023-03-16T00:08:03;101910.44;;;3.71;73.03
71770;BME280;66386;52.122;5.420;2023-03-16T00:10:30;101906.22;;;3.73;73.22
71770;BME280;66386;52.122;5.420;2023-03-16T00:12:56;101904.53;;;3.73;73.04
71770;BME280;66386;52.122;5.420;2023-03-16T00:15:23;101894.38;;;3.75;73.11
71770;BME280;66386;52.122;5.420;2023-03-16T00:17:49;101892.69;;;3.75;73.21
71770;BME280;66386;52.122;5.420;2023-03-16T00:20:17;101879.09;;;3.75;73.32
71770;BME280;66386;52.122;5.420;2023-03-16T00:22:44;101881.63;;;3.73;73.54
71770;BME280;66386;52.122;5.420;2023-03-16T00:25:12;101885.91;;;3.74;73.63
71770;BME280;66386;52.122;5.420;2023-03-16T00:27:40;101884.19;;;3.73;73.79
71770;BME280;66386;52.122;5.420;2023-03-16T00:30:07;101876.56;;;3.73;73.94
71770;BME280;66386;52.122;5.420;2023-03-16T00:32:35;101879.94;;;3.74;74.18
71770;BME280;66386;52.122;5.420;2023-03-16T00:35:03;101874.00;;;3.73;74.22
71770;BME280;66386;52.122;5.420;2023-03-16T00:37:34;101866.38;;;3.73;74.14
71770;BME280;66386;52.122;5.420;2023-03-16T00:40:02;101870.63;;;3.73;74.19
71770;BME280;66386;52.122;5.420;2023-03-16T00:42:29;101866.34;;;3.70;74.53
71770;BME280;66386;52.122;5.420;2023-03-16T00:44:57;101862.13;;;3.71;74.64
71770;BME280;66386;52.122;5.420;2023-03-16T00:47:29;101856.19;;;3.70;74.70
71770;BME280;66386;52.122;5.420;2023-03-16T00:49:56;101858.72;;;3.70;74.86
71770;BME280;66386;52.122;5.420;2023-03-16T00:52:24;101859.56;;;3.71;75.00
71770;BME280;66386;52.122;5.420;2023-03-16T00:54:53;101854.50;;;3.71;75.12
71770;BME280;66386;52.122;5.420;2023-03-16T00:57:22;101858.72;;;3.70;75.13
71770;BME280;66386;52.122;5.420;2023-03-16T00:59:50;101854.50;;;3.72;75.57
71770;BME280;66386;52.122;5.420;2023-03-16T01:02:18;101845.22;;;3.74;75.38
71770;BME280;66386;52.122;5.420;2023-03-16T01:04:49;101844.38;;;3.77;75.43
71770;BME280;66386;52.122;5.420;2023-03-16T01:07:17;101838.44;;;3.79;75.17
71770;BME280;66386;52.122;5.420;2023-03-16T01:09:43;101833.34;;;3.78;75.63
71770;BME280;66386;52.122;5.420;2023-03-16T01:12:16;101823.19;;;3.76;75.68
71770;BME280;66386;52.122;5.420;2023-03-16T01:14:42;101815.53;;;3.76;75.62
71770;BME280;66386;52.122;5.420;2023-03-16T01:17:11;101813.00;;;3.76;75.49
71770;BME280;66386;52.122;5.420;2023-03-16T01:19:39;101813.00;;;3.76;75.85
71770;BME280;66386;52.122;5.420;2023-03-16T01:22:07;101813.00;;;3.76;76.03
71770;BME280;66386;52.122;5.420;2023-03-16T01:24:35;101821.50;;;3.77;75.81
71770;BME280;66386;52.122;5.420;2023-03-16T01:27:03;101818.09;;;3.76;76.21
71770;BME280;66386;52.122;5.420;2023-03-16T01:29:30;101813.00;;;3.75;76.22
71770;BME280;66386;52.122;5.420;2023-03-16T01:31:58;101809.63;;;3.76;76.41
71770;BME280;66386;52.122;5.420;2023-03-16T01:34:25;101798.56;;;3.74;76.62
71770;BME280;66386;52.122;5.420;2023-03-16T01:36:51;101790.94;;;3.74;76.85
71770;BME280;66386;52.122;5.420;2023-03-16T01:39:18;101792.66;;;3.75;76.68
71770;BME280;66386;52.122;5.420;2023-03-16T01:41:45;101787.56;;;3.75;76.75
71770;BME280;66386;52.122;5.420;2023-03-16T01:44:20;101790.97;;;3.75;76.93
71770;BME280;66386;52.122;5.420;2023-03-16T01:46:48;101790.13;;;3.76;77.09
71770;BME280;66386;52.122;5.420;2023-03-16T01:49:22;101785.91;;;3.77;76.98
71770;BME280;66386;52.122;5.420;2023-03-16T01:51:53;101786.75;;;3.76;77.10
71770;BME280;66386;52.122;5.420;2023-03-16T01:54:38;101785.84;;;3.72;77.38
71770;BME280;66386;52.122;5.420;2023-03-16T01:59:42;101774.84;;;3.73;77.43
71770;BME280;66386;52.122;5.420;2023-03-16T02:02:12;101759.59;;;3.73;77.63
71770;BME280;66386;52.122;5.420;2023-03-16T02:05:00;101762.97;;;3.72;77.77
71770;BME280;66386;52.122;5.420;2023-03-16T02:07:31;101759.59;;;3.73;77.78
71770;BME280;66386;52.122;5.420;2023-03-16T02:10:00;101755.34;;;3.74;77.71
71770;BME280;66386;52.122;5.420;2023-03-16T02:12:28;101759.59;;;3.73;77.85
71770;BME280;66386;52.122;5.420;2023-03-16T02:14:55;101749.41;;;3.73;77.94
71770;BME280;66386;52.122;5.420;2023-03-16T02:17:24;101744.34;;;3.76;78.12
71770;BME280;66386;52.122;5.420;2023-03-16T02:22:44;101743.53;;;3.79;78.17
71770;BME280;66386;52.122;5.420;2023-03-16T02:25:13;101737.63;;;3.81;78.09
71770;BME280;66386;52.122;5.420;2023-03-16T02:28:04;101733.38;;;3.82;78.14
71770;BME280;66386;52.122;5.420;2023-03-16T02:30:34;101735.91;;;3.83;78.22
71770;BME280;66386;52.122;5.420;2023-03-16T02:33:01;101727.47;;;3.83;78.19
71770;BME280;66386;52.122;5.420;2023-03-16T02:35:30;101735.91;;;3.83;78.31
71770;BME280;66386;52.122;5.420;2023-03-16T02:37:57;101728.28;;;3.85;78.36
71770;BME280;66386;52.122;5.420;2023-03-16T02:40:25;101729.13;;;3.84;78.48
71770;BME280;66386;52.122;5.420;2023-03-16T02:43:14;101728.28;;;3.85;78.72
71770;BME280;66386;52.122;5.420;2023-03-16T02:45:49;101733.38;;;3.85;78.97
71770;BME280;66386;52.122;5.420;2023-03-16T02:48:42;101734.25;;;3.86;79.09
71770;BME280;66386;52.122;5.420;2023-03-16T02:51:11;101734.22;;;3.82;79.54
71770;BME280;66386;52.122;5.420;2023-03-16T02:53:38;101738.47;;;3.82;79.79
71770;BME280;66386;52.122;5.420;2023-03-16T02:56:04;101743.53;;;3.80;79.91
71770;BME280;66386;52.122;5.420;2023-03-16T02:58:31;101742.69;;;3.80;80.36
71770;BME280;66386;52.122;5.420;2023-03-16T03:00:58;101749.47;;;3.79;80.11
71770;BME280;66386;52.122;5.420;2023-03-16T03:03:24;101746.06;;;3.79;80.24
71770;BME280;66386;52.122;5.420;2023-03-16T03:05:51;101737.59;;;3.78;80.62
71770;BME280;66386;52.122;5.420;2023-03-16T03:08:17;101726.56;;;3.78;80.66
71770;BME280;66386;52.122;5.420;2023-03-16T03:10:47;101729.09;;;3.76;81.14
71770;BME280;66386;52.122;5.420;2023-03-16T03:13:13;101732.50;;;3.77;81.01
71770;BME280;66386;52.122;5.420;2023-03-16T03:15:40;101725.72;;;3.77;81.00
71770;BME280;66386;52.122;5.420;2023-03-16T03:18:06;101723.19;;;3.77;80.93
71770;BME280;66386;52.122;5.420;2023-03-16T03:20:32;101723.19;;;3.79;81.05
71770;BME280;66386;52.122;5.420;2023-03-16T03:22:59;101722.38;;;3.81;80.73
71770;BME280;66386;52.122;5.420;2023-03-16T03:25:26;101730.00;;;3.81;80.80
71770;BME280;66386;52.122;5.420;2023-03-16T03:27:53;101718.94;;;3.79;80.92
71770;BME280;66386;52.122;5.420;2023-03-16T03:30:21;101724.91;;;3.80;81.21
71770;BME280;66386;52.122;5.420;2023-03-16T03:32:49;101713.84;;;3.78;81.33
71770;BME280;66386;52.122;5.420;2023-03-16T03:35:18;101716.41;;;3.78;81.57
71770;BME280;66386;52.122;5.420;2023-03-16T03:37:44;101714.72;;;3.75;81.99
71770;BME280;66386;52.122;5.420;2023-03-16T03:40:13;101709.63;;;3.75;82.20
71770;BME280;66386;52.122;5.420;2023-03-16T03:42:41;101695.19;;;3.74;82.39
71770;BME280;66386;52.122;5.420;2023-03-16T03:45:08;101691.81;;;3.75;82.30
71770;BME280;66386;52.122;5.420;2023-03-16T03:47:39;101687.56;;;3.76;82.30
71770;BME280;66386;52.122;5.420;2023-03-16T03:50:07;101690.94;;;3.73;82.41
71770;BME280;66386;52.122;5.420;2023-03-16T03:52:34;101684.16;;;3.72;82.49
71770;BME280;66386;52.122;5.420;2023-03-16T03:55:00;101681.59;;;3.69;82.81
71770;BME280;66386;52.122;5.420;2023-03-16T03:57:26;101676.50;;;3.69;83.01
71770;BME280;66386;52.122;5.420;2023-03-16T03:59:53;101674.84;;;3.68;83.13
71770;BME280;66386;52.122;5.420;2023-03-16T04:02:20;101673.13;;;3.67;83.37
71770;BME280;66386;52.122;5.420;2023-03-16T04:04:46;101677.31;;;3.63;83.78
71770;BME280;66386;52.122;5.420;2023-03-16T04:07:13;101678.19;;;3.62;83.71
71770;BME280;66386;52.122;5.420;2023-03-16T04:09:39;101683.28;;;3.61;83.76
71770;BME280;66386;52.122;5.420;2023-03-16T04:12:07;101672.22;;;3.57;84.07
71770;BME280;66386;52.122;5.420;2023-03-16T04:14:33;101661.19;;;3.55;84.29
71770;BME280;66386;52.122;5.420;2023-03-16T04:17:00;101667.97;;;3.55;84.66
71770;BME280;66386;52.122;5.420;2023-03-16T04:19:26;101669.66;;;3.53;84.64
71770;BME280;66386;52.122;5.420;2023-03-16T04:21:53;101662.88;;;3.52;84.62
71770;BME280;66386;52.122;5.420;2023-03-16T04:24:20;101660.31;;;3.52;84.81
71770;BME280;66386;52.122;5.420;2023-03-16T04:26:47;101652.69;;;3.50;84.80
71770;BME280;66386;52.122;5.420;2023-03-16T04:29:15;101660.31;;;3.48;84.93
71770;BME280;66386;52.122;5.420;2023-03-16T04:31:43;101655.22;;;3.47;84.92
71770;BME280;66386;52.122;5.420;2023-03-16T04:34:10;101661.13;;;3.47;85.11
71770;BME280;66386;52.122;5.420;2023-03-16T04:36:37;101662.84;;;3.45;85.21
71770;BME280;66386;52.122;5.420;2023-03-16T04:39:04;101656.03;;;3.44;85.33
71770;BME280;66386;52.122;5.420;2023-03-16T04:41:31;101664.53;;;3.45;85.31
71770;BME280;66386;52.122;5.420;2023-03-16T04:43:58;101658.59;;;3.46;85.39
71770;BME280;66386;52.122;5.420;2023-03-16T04:46:25;101663.69;;;3.47;85.60
71770;BME280;66386;52.122;5.420;2023-03-16T04:48:52;101657.78;;;3.50;85.54
71770;BME280;66386;52.122;5.420;2023-03-16T04:51:19;101656.09;;;3.52;85.41
71770;BME280;66386;52.122;5.420;2023-03-16T04:53:46;101659.50;;;3.54;85.40
71770;BME280;66386;52.122;5.420;2023-03-16T04:56:13;101659.50;;;3.56;85.50
71770;BME280;66386;52.122;5.420;2023-03-16T04:58:46;101656.97;;;3.56;85.38
71770;BME280;66386;52.122;5.420;2023-03-16T05:01:13;101657.84;;;3.58;85.23
71770;BME280;66386;52.122;5.420;2023-03-16T05:03:40;101661.22;;;3.60;85.30
71770;BME280;66386;52.122;5.420;2023-03-16T05:06:08;101658.69;;;3.60;85.11
71770;BME280;66386;52.122;5.420;2023-03-16T05:08:35;101660.38;;;3.61;84.98
71770;BME280;66386;52.122;5.420;2023-03-16T05:11:02;101658.69;;;3.61;85.07
71770;BME280;66386;52.122;5.420;2023-03-16T05:13:28;101647.69;;;3.62;84.98
71770;BME280;66386;52.122;5.420;2023-03-16T05:15:55;101651.91;;;3.63;84.95
71770;BME280;66386;52.122;5.420;2023-03-16T05:18:22;101657.00;;;3.63;84.96
71770;BME280;66386;52.122;5.420;2023-03-16T05:20:50;101650.25;;;3.64;84.75
71770;BME280;66386;52.122;5.420;2023-03-16T05:23:16;101643.44;;;3.64;84.76
71770;BME280;66386;52.122;5.420;2023-03-16T05:25:43;101644.28;;;3.65;84.89
71770;BME280;66386;52.122;5.420;2023-03-16T05:28:12;101644.28;;;3.63;85.14
71770;BME280;66386;52.122;5.420;2023-03-16T05:30:38;101647.69;;;3.64;85.15
71770;BME280;66386;52.122;5.420;2023-03-16T05:33:05;101648.53;;;3.66;85.08
71770;BME280;66386;52.122;5.420;2023-03-16T05:35:31;101640.06;;;3.65;85.09
71770;BME280;66386;52.122;5.420;2023-03-16T05:37:58;101641.75;;;3.65;85.05
71770;BME280;66386;52.122;5.420;2023-03-16T05:40:24;101645.16;;;3.65;85.15
71770;BME280;66386;52.122;5.420;2023-03-16T05:42:55;101642.63;;;3.67;85.08
71770;BME280;66386;52.122;5.420;2023-03-16T05:45:22;101640.91;;;3.67;85.14
71770;BME280;66386;52.122;5.420;2023-03-16T05:47:49;101637.53;;;3.67;85.23
71770;BME280;66386;52.122;5.420;2023-03-16T05:50:16;101640.91;;;3.67;85.36
71770;BME280;66386;52.122;5.420;2023-03-16T05:52:44;101639.25;;;3.68;85.47
71770;BME280;66386;52.122;5.420;2023-03-16T05:55:12;101631.63;;;3.68;85.60
71770;BME280;66386;52.122;5.420;2023-03-16T05:57:40;101627.38;;;3.67;85.83
71770;BME280;66386;52.122;5.420;2023-03-16T06:00:08;101623.13;;;3.66;86.05
71770;BME280;66386;52.122;5.420;2023-03-16T06:02:41;101612.94;;;3.66;85.91
71770;BME280;66386;52.122;5.420;2023-03-16T06:05:08;101619.75;;;3.67;86.17
71770;BME280;66386;52.122;5.420;2023-03-16T06:07:35;101628.19;;;3.67;86.28
71770;BME280;66386;52.122;5.420;2023-03-16T06:10:02;101629.91;;;3.67;86.22
71770;BME280;66386;52.122;5.420;2023-03-16T06:12:30;101621.44;;;3.68;86.35
71770;BME280;66386;52.122;5.420;2023-03-16T06:14:57;101626.53;;;3.70;86.43
71770;BME280;66386;52.122;5.420;2023-03-16T06:17:24;101625.69;;;3.72;86.44
71770;BME280;66386;52.122;5.420;2023-03-16T06:19:50;101625.69;;;3.74;86.38
71770;BME280;66386;52.122;5.420;2023-03-16T06:22:17;101622.31;;;3.75;86.43
71770;BME280;66386;52.122;5.420;2023-03-16T06:24:43;101606.22;;;3.77;86.63
71770;BME280;66386;52.122;5.420;2023-03-16T06:27:10;101603.69;;;3.79;86.27
71770;BME280;66386;52.122;5.420;2023-03-16T06:29:37;101607.06;;;3.81;86.02
71770;BME280;66386;52.122;5.420;2023-03-16T06:32:03;101607.06;;;3.84;86.02
71770;BME280;66386;52.122;5.420;2023-03-16T06:34:30;101610.50;;;3.86;86.16
71770;BME280;66386;52.122;5.420;2023-03-16T06:36:57;101606.25;;;3.90;86.12
71770;BME280;66386;52.122;5.420;2023-03-16T06:39:23;101607.97;;;3.92;86.18
71770;BME280;66386;52.122;5.420;2023-03-16T06:41:49;101604.59;;;3.96;86.05
71770;BME280;66386;52.122;5.420;2023-03-16T06:44:16;101600.34;;;3.98;86.15
71770;BME280;66386;52.122;5.420;2023-03-16T06:46:42;101596.97;;;4.01;86.19
71770;BME280;66386;52.122;5.420;2023-03-16T06:49:09;101599.50;;;4.02;86.16
71770;BME280;66386;52.122;5.420;2023-03-16T06:51:36;101588.50;;;4.04;86.50
71770;BME280;66386;52.122;5.420;2023-03-16T06:54:02;101602.94;;;4.08;86.54
71770;BME280;66386;52.122;5.420;2023-03-16T06:56:29;101597.84;;;4.09;86.69
71770;BME280;66386;52.122;5.420;2023-03-16T06:58:57;101591.06;;;4.14;86.91
71770;BME280;66386;52.122;5.420;2023-03-16T07:01:23;101589.38;;;4.23;86.84
71770;BME280;66386;52.122;5.420;2023-03-16T07:03:50;101587.72;;;4.29;86.74
71770;BME280;66386;52.122;5.420;2023-03-16T07:06:16;101595.34;;;4.37;86.74
71770;BME280;66386;52.122;5.420;2023-03-16T07:08:43;101591.97;;;4.41;86.37
71770;BME280;66386;52.122;5.420;2023-03-16T07:11:09;101586.88;;;4.44;86.37
71770;BME280;66386;52.122;5.420;2023-03-16T07:13:36;101588.53;;;4.45;86.06
71770;BME280;66386;52.122;5.420;2023-03-16T07:16:03;101588.53;;;4.45;86.11
71770;BME280;66386;52.122;5.420;2023-03-16T07:18:30;101592.78;;;4.45;86.03
71770;BME280;66386;52.122;5.420;2023-03-16T07:20:57;101592.78;;;4.46;85.89
71770;BME280;66386;52.122;5.420;2023-03-16T07:23:24;101592.78;;;4.46;86.10
71770;BME280;66386;52.122;5.420;2023-03-16T07:25:51;101590.25;;;4.48;85.87
71770;BME280;66386;52.122;5.420;2023-03-16T07:28:18;101585.16;;;4.48;85.64
71770;BME280;66386;52.122;5.420;2023-03-16T07:30:45;101584.31;;;4.49;85.59
71770;BME280;66386;52.122;5.420;2023-03-16T07:33:28;101580.06;;;4.49;85.52
71770;BME280;66386;52.122;5.420;2023-03-16T07:35:55;101588.56;;;4.48;85.63
71770;BME280;66386;52.122;5.420;2023-03-16T07:38:21;101584.31;;;4.47;85.86
71770;BME280;66386;52.122;5.420;2023-03-16T07:40:48;101580.06;;;4.46;86.18
71770;BME280;66386;52.122;5.420;2023-03-16T07:43:15;101585.16;;;4.45;85.94
71770;BME280;66386;52.122;5.420;2023-03-16T07:45:41;101579.22;;;4.44;86.05
71770;BME280;66386;52.122;5.420;2023-03-16T07:48:08;101572.44;;;4.42;86.13
71770;BME280;66386;52.122;5.420;2023-03-16T07:50:34;101586.88;;;4.41;86.10
71770;BME280;66386;52.122;5.420;2023-03-16T07:53:00;101581.78;;;4.41;86.01
71770;BME280;66386;52.122;5.420;2023-03-16T07:55:27;101581.78;;;4.43;86.25
71770;BME280;66386;52.122;5.420;2023-03-16T07:57:53;101590.25;;;4.45;86.12
71770;BME280;66386;52.122;5.420;2023-03-16T08:00:20;101592.78;;;4.48;86.30
71770;BME280;66386;52.122;5.420;2023-03-16T08:02:49;101602.97;;;4.49;86.17
71770;BME280;66386;52.122;5.420;2023-03-16T08:05:17;101591.13;;;4.51;85.86
71770;BME280;66386;52.122;5.420;2023-03-16T08:07:43;101586.84;;;4.57;85.75
71770;BME280;66386;52.122;5.420;2023-03-16T08:10:10;101594.50;;;4.63;85.97
71770;BME280;66386;52.122;5.420;2023-03-16T08:12:36;101583.44;;;4.73;86.13
71770;BME280;66386;52.122;5.420;2023-03-16T08:15:03;101573.28;;;4.84;86.22
71770;BME280;66386;52.122;5.420;2023-03-16T08:17:31;101574.94;;;4.97;86.06
71770;BME280;66386;52.122;5.420;2023-03-16T08:19:57;101561.34;;;5.07;85.80
71770;BME280;66386;52.122;5.420;2023-03-16T08:22:24;101557.91;;;5.21;85.55
71770;BME280;66386;52.122;5.420;2023-03-16T08:24:50;101564.66;;;5.34;85.61
71770;BME280;66386;52.122;5.420;2023-03-16T08:27:17;101561.22;;;5.43;85.68
71770;BME280;66386;52.122;5.420;2023-03-16T08:29:45;101555.25;;;5.47;85.49
71770;BME280;66386;52.122;5.420;2023-03-16T08:32:12;101541.66;;;5.48;85.23
71770;BME280;66386;52.122;5.420;2023-03-16T08:34:38;101550.16;;;5.49;84.89
71770;BME280;66386;52.122;5.420;2023-03-16T08:37:05;101559.50;;;5.51;84.73
71770;BME280;66386;52.122;5.420;2023-03-16T08:39:32;101565.41;;;5.53;84.00
71770;BME280;66386;52.122;5.420;2023-03-16T08:41:58;101561.22;;;5.51;83.83
71770;BME280;66386;52.122;5.420;2023-03-16T08:44:25;101559.50;;;5.53;83.51
71770;BME280;66386;52.122;5.420;2023-03-16T08:46:52;101559.47;;;5.54;83.11
71770;BME280;66386;52.122;5.420;2023-03-16T08:49:19;101567.13;;;5.56;83.58
71770;BME280;66386;52.122;5.420;2023-03-16T08:51:58;101564.53;;;5.60;82.96
71770;BME280;66386;52.122;5.420;2023-03-16T08:54:26;101566.25;;;5.62;82.61
71770;BME280;66386;52.122;5.420;2023-03-16T08:56:52;101561.13;;;5.68;82.82
71770;BME280;66386;52.122;5.420;2023-03-16T08:59:19;101567.91;;;5.70;82.08
71770;BME280;66386;52.122;5.420;2023-03-16T09:01:56;101559.38;;;5.76;81.95
71770;BME280;66386;52.122;5.420;2023-03-16T09:04:23;101559.34;;;5.82;82.06
71770;BME280;66386;52.122;5.420;2023-03-16T09:06:49;101552.53;;;5.86;81.84
71770;BME280;66386;52.122;5.420;2023-03-16T09:09:33;101554.22;;;5.91;81.49
71770;BME280;66386;52.122;5.420;2023-03-16T09:12:02;101545.66;;;5.97;81.38
71770;BME280;66386;52.122;5.420;2023-03-16T09:14:29;101544.81;;;6.00;81.05
71770;BME280;66386;52.122;5.420;2023-03-16T09:16:56;101549.06;;;6.01;80.65
71770;BME280;66386;52.122;5.420;2023-03-16T09:19:22;101542.25;;;6.01;80.37
71770;BME280;66386;52.122;5.420;2023-03-16T09:21:50;101549.91;;;6.01;80.23
71770;BME280;66386;52.122;5.420;2023-03-16T09:24:17;101549.91;;;5.97;79.77
71770;BME280;66386;52.122;5.420;2023-03-16T09:26:43;101548.19;;;5.95;79.62
71770;BME280;66386;52.122;5.420;2023-03-16T09:29:10;101545.66;;;5.95;79.73
71770;BME280;66386;52.122;5.420;2023-03-16T09:31:37;101554.19;;;5.98;79.94
71770;BME280;66386;52.122;5.420;2023-03-16T09:34:04;101553.31;;;5.97;79.79
71770;BME280;66386;52.122;5.420;2023-03-16T09:36:30;101544.81;;;5.97;79.65
71770;BME280;66386;52.122;5.420;2023-03-16T09:38:58;101542.28;;;5.98;79.13
71770;BME280;66386;52.122;5.420;2023-03-16T09:41:47;101541.41;;;6.01;79.65
71770;BME280;66386;52.122;5.420;2023-03-16T09:44:50;101542.22;;;6.04;79.44
71770;BME280;66386;52.122;5.420;2023-03-16T09:47:25;101533.66;;;6.13;79.58
71770;BME280;66386;52.122;5.420;2023-03-16T09:49:56;101532.72;;;6.23;78.96
71770;BME280;66386;52.122;5.420;2023-03-16T09:55:31;101535.06;;;6.54;77.88
71770;BME280;66386;52.122;5.420;2023-03-16T09:57:59;101535.81;;;6.62;77.25
71770;BME280;66386;52.122;5.420;2023-03-16T10:00:29;101528.09;;;6.69;77.58
71770;BME280;66386;52.122;5.420;2023-03-16T10:03:27;101521.97;;;6.87;77.96
71770;BME280;66386;52.122;5.420;2023-03-16T10:06:00;101528.47;;;7.17;76.90
71770;BME280;66386;52.122;5.420;2023-03-16T10:11:28;101511.72;;;7.60;74.91
71770;BME280;66386;52.122;5.420;2023-03-16T10:14:18;101513.97;;;7.83;75.02
71770;BME280;66386;52.122;5.420;2023-03-16T10:16:51;101505.75;;;8.17;72.94
71770;BME280;66386;52.122;5.420;2023-03-16T10:19:37;101497.00;;;8.30;71.85
71770;BME280;66386;52.122;5.420;2023-03-16T10:22:15;101493.44;;;8.39;72.06
71770;BME280;66386;52.122;5.420;2023-03-16T10:27:31;101510.34;;;8.51;70.44
71770;BME280;66386;52.122;5.420;2023-03-16T10:29:58;101503.06;;;8.74;69.04
71770;BME280;66386;52.122;5.420;2023-03-16T10:32:31;101499.53;;;8.82;69.53
71770;BME280;66386;52.122;5.420;2023-03-16T10:35:04;101501.72;;;9.02;69.63
71770;BME280;66386;52.122;5.420;2023-03-16T10:37:32;101492.72;;;9.24;70.14
71770;BME280;66386;52.122;5.420;2023-03-16T10:40:00;101482.19;;;9.37;68.82
71770;BME280;66386;52.122;5.420;2023-03-16T10:42:26;101475.16;;;9.47;67.78
71770;BME280;66386;52.122;5.420;2023-03-16T10:44:57;101482.78;;;9.50;67.26
71770;BME280;66386;52.122;5.420;2023-03-16T10:47:31;101483.50;;;9.55;67.32
71770;BME280;66386;52.122;5.420;2023-03-16T10:50:10;101477.31;;;9.65;68.00
71770;BME280;66386;52.122;5.420;2023-03-16T10:52:44;101473.81;;;9.68;66.70
71770;BME280;66386;52.122;5.420;2023-03-16T10:55:30;101474.69;;;9.68;67.05
71770;BME280;66386;52.122;5.420;2023-03-16T10:57:59;101472.97;;;9.67;66.97
71770;BME280;66386;52.122;5.420;2023-03-16T11:00:35;101464.44;;;9.67;66.74
71770;BME280;66386;52.122;5.420;2023-03-16T11:03:17;101470.44;;;9.66;66.51
71770;BME280;66386;52.122;5.420;2023-03-16T11:05:56;101456.09;;;9.57;66.04
71770;BME280;66386;52.122;5.420;2023-03-16T11:08:24;101456.91;;;9.59;66.36
71770;BME280;66386;52.122;5.420;2023-03-16T11:10:57;101461.91;;;9.64;65.69
71770;BME280;66386;52.122;5.420;2023-03-16T11:13:35;101463.81;;;9.57;64.79
71770;BME280;66386;52.122;5.420;2023-03-16T11:16:33;101445.75;;;9.60;65.56
71770;BME280;66386;52.122;5.420;2023-03-16T11:19:13;101449.16;;;9.60;64.56
71770;BME280;66386;52.122;5.420;2023-03-16T11:21:50;101446.78;;;9.53;64.34
71770;BME280;66386;52.122;5.420;2023-03-16T11:24:29;101441.72;;;9.50;64.08
71770;BME280;66386;52.122;5.420;2023-03-16T11:27:01;101432.25;;;9.52;64.26
71770;BME280;66386;52.122;5.420;2023-03-16T11:32:11;101419.22;;;9.61;64.44
71770;BME280;66386;52.122;5.420;2023-03-16T11:34:40;101411.56;;;9.59;64.06
71770;BME280;66386;52.122;5.420;2023-03-16T11:37:27;101408.81;;;9.67;64.15
71770;BME280;66386;52.122;5.420;2023-03-16T11:40:19;101413.94;;;9.67;63.37
71770;BME280;66386;52.122;5.420;2023-03-16T11:43:09;101406.91;;;9.75;63.64
71770;BME280;66386;52.122;5.420;2023-03-16T11:54:51;101416.97;;;10.18;62.48
71770;BME280;66386;52.122;5.420;2023-03-16T12:15:08;101385.81;;;10.93;60.45
71770;BME280;66386;52.122;5.420;2023-03-16T12:17:39;101387.06;;;11.08;59.46
71770;BME280;66386;52.122;5.420;2023-03-16T12:20:19;101382.31;;;11.24;59.02
71770;BME280;66386;52.122;5.420;2023-03-16T12:22:56;101375.63;;;11.46;59.93
71770;BME280;66386;52.122;5.420;2023-03-16T12:25:29;101373.38;;;11.62;57.93
71770;BME280;66386;52.122;5.420;2023-03-16T12:27:59;101363.81;;;11.66;57.97
71770;BME280;66386;52.122;5.420;2023-03-16T12:30:43;101360.91;;;11.75;58.40
71770;BME280;66386;52.122;5.420;2023-03-16T12:39:13;101351.22;;;12.34;55.11
71770;BME280;66386;52.122;5.420;2023-03-16T12:41:57;101349.88;;;12.47;53.24
71770;BME280;66386;52.122;5.420;2023-03-16T12:49:50;101345.00;;;12.39;54.55
71770;BME280;66386;52.122;5.420;2023-03-16T12:52:17;101326.16;;;12.37;54.15
71770;BME280;66386;52.122;5.420;2023-03-16T12:55:05;101323.31;;;12.45;55.02
71770;BME280;66386;52.122;5.420;2023-03-16T12:57:32;101317.59;;;12.61;55.63
71770;BME280;66386;52.122;5.420;2023-03-16T13:00:00;101309.56;;;12.68;54.96
71770;BME280;66386;52.122;5.420;2023-03-16T13:02:31;101302.66;;;12.69;54.45
71770;BME280;66386;52.122;5.420;2023-03-16T13:05:07;101289.81;;;12.67;54.06
71770;BME280;66386;52.122;5.420;2023-03-16T13:07:35;101277.84;;;12.66;53.35
71770;BME280;66386;52.122;5.420;2023-03-16T13:10:08;101284.94;;;12.60;53.77
71770;BME280;66386;52.122;5.420;2023-03-16T13:12:37;101289.09;;;12.64;53.53
71770;BME280;66386;52.122;5.420;2023-03-16T13:17:48;101262.22;;;12.47;52.61
71770;BME280;66386;52.122;5.420;2023-03-16T13:23:44;101271.09;;;12.62;52.76
71770;BME280;66386;52.122;5.420;2023-03-16T13:26:15;101275.44;;;12.62;51.00
71770;BME280;66386;52.122;5.420;2023-03-16T13:28:45;101271.16;;;12.61;51.11
71770;BME280;66386;52.122;5.420;2023-03-16T13:31:27;101266.50;;;12.70;51.13
71770;BME280;66386;52.122;5.420;2023-03-16T13:33:55;101273.25;;;12.73;51.35
71770;BME280;66386;52.122;5.420;2023-03-16T13:36:26;101260.50;;;12.70;49.60
71770;BME280;66386;52.122;5.420;2023-03-16T13:39:03;101251.25;;;12.64;50.55
71770;BME280;66386;52.122;5.420;2023-03-16T13:41:30;101247.06;;;12.62;49.69
71770;BME280;66386;52.122;5.420;2023-03-16T13:43:56;101237.84;;;12.56;49.57
71770;BME280;66386;52.122;5.420;2023-03-16T13:46:27;101240.28;;;12.59;50.55
71770;BME280;66386;52.122;5.420;2023-03-16T13:48:57;101234.94;;;12.64;50.63
71770;BME280;66386;52.122;5.420;2023-03-16T13:51:27;101231.94;;;12.74;50.47
71770;BME280;66386;52.122;5.420;2023-03-16T13:53:56;101222.09;;;12.84;50.61
71770;BME280;66386;52.122;5.420;2023-03-16T13:56:25;101226.22;;;12.88;50.74
71770;BME280;66386;52.122;5.420;2023-03-16T13:58:55;101223.13;;;13.01;49.79
71770;BME280;66386;52.122;5.420;2023-03-16T14:01:28;101230.25;;;12.96;49.55
71770;BME280;66386;52.122;5.420;2023-03-16T14:03:59;101231.06;;;12.96;49.82
71770;BME280;66386;52.122;5.420;2023-03-16T14:06:28;101231.47;;;13.07;49.67
71770;BME280;66386;52.122;5.420;2023-03-16T14:08:58;101223.00;;;13.04;49.63
71770;BME280;66386;52.122;5.420;2023-03-16T14:11:26;101220.41;;;13.05;49.34
71770;BME280;66386;52.122;5.420;2023-03-16T14:13:56;101219.41;;;13.08;48.67